sensor_id;sensor_type;location;lat;lon;timestamp;P1;durP1;ratioP1;P2;durP2;ratioP2
5612;SDS011;63463;53.586;9.928;2022-12-01T00:00:44;93.10;;;37.33;;
5612;SDS011;63463;53.586;9.928;2022-12-01T00:03:10;95.80;;;36.90;;
5612;SDS011;63463;53.586;9.928;2022-12-01T00:05:36;95.47;;;36.10;;
5612;SDS011;63463;53.586;9.928;2022-12-01T00:08:02;99.07;;;36.07;;
5612;SDS011;63463;53.586;9.928;2022-12-01T00:10:29;92.80;;;37.50;;
5612;SDS011;63463;53.586;9.928;2022-12-01T00:12:59;101.97;;;36.40;;
5612;SDS011;63463;53.586;9.928;2022-12-01T00:15:26;96.43;;;38.00;;
5612;SDS011;63463;53.586;9.928;2022-12-01T00:17:53;93.33;;;36.97;;
5612;SDS011;63463;53.586;9.928;2022-12-01T00:20:19;99.97;;;36.77;;
5612;SDS011;63463;53.586;9.928;2022-12-01T00:22:45;99.83;;;39.10;;
5612;SDS011;63463;53.586;9.928;2022-12-01T00:25:12;98.23;;;38.60;;
5612;SDS011;63463;53.586;9.928;2022-12-01T00:27:38;102.20;;;39.20;;
5612;SDS011;63463;53.586;9.928;2022-12-01T00:30:05;108.80;;;37.17;;
5612;SDS011;63463;53.586;9.928;2022-12-01T00:32:32;95.23;;;36.40;;
5612;SDS011;63463;53.586;9.928;2022-12-01T00:34:58;100.03;;;38.20;;
5612;SDS011;63463;53.586;9.928;2022-12-01T00:37:24;98.97;;;38.57;;
5612;SDS011;63463;53.586;9.928;2022-12-01T00:39:50;91.43;;;37.10;;
5612;SDS011;63463;53.586;9.928;2022-12-01T00:42:16;104.93;;;37.30;;
5612;SDS011;63463;53.586;9.928;2022-12-01T00:44:44;91.53;;;35.53;;
5612;SDS011;63463;53.586;9.928;2022-12-01T00:47:11;114.40;;;38.07;;
5612;SDS011;63463;53.586;9.928;2022-12-01T00:49:36;104.47;;;39.70;;
5612;SDS011;63463;53.586;9.928;2022-12-01T00:52:02;90.37;;;38.23;;
5612;SDS011;63463;53.586;9.928;2022-12-01T00:57:50;95.53;;;34.80;;
5612;SDS011;63463;53.586;9.928;2022-12-01T01:00:16;103.53;;;36.20;;
5612;SDS011;63463;53.586;9.928;2022-12-01T01:02:43;107.00;;;36.33;;
5612;SDS011;63463;53.586;9.928;2022-12-01T01:05:08;105.73;;;39.07;;
5612;SDS011;63463;53.586;9.928;2022-12-01T01:07:34;92.03;;;35.80;;
5612;SDS011;63463;53.586;9.928;2022-12-01T01:10:01;104.93;;;38.20;;
5612;SDS011;63463;53.586;9.928;2022-12-01T01:12:27;92.17;;;34.87;;
5612;SDS011;63463;53.586;9.928;2022-12-01T01:14:53;112.13;;;37.70;;
5612;SDS011;63463;53.586;9.928;2022-12-01T01:17:19;111.33;;;38.10;;
5612;SDS011;63463;53.586;9.928;2022-12-01T01:19:45;92.50;;;36.33;;
5612;SDS011;63463;53.586;9.928;2022-12-01T01:22:11;92.83;;;35.90;;
5612;SDS011;63463;53.586;9.928;2022-12-01T01:24:37;96.17;;;36.27;;
5612;SDS011;63463;53.586;9.928;2022-12-01T01:27:03;94.37;;;36.80;;
5612;SDS011;63463;53.586;9.928;2022-12-01T01:29:30;96.53;;;36.27;;
5612;SDS011;63463;53.586;9.928;2022-12-01T01:31:56;96.93;;;36.03;;
5612;SDS011;63463;53.586;9.928;2022-12-01T01:34:22;107.77;;;38.97;;
5612;SDS011;63463;53.586;9.928;2022-12-01T01:36:48;95.43;;;35.23;;
5612;SDS011;63463;53.586;9.928;2022-12-01T01:39:14;92.63;;;34.43;;
5612;SDS011;63463;53.586;9.928;2022-12-01T01:41:40;92.53;;;37.13;;
5612;SDS011;63463;53.586;9.928;2022-12-01T01:46:51;97.23;;;36.00;;
5612;SDS011;63463;53.586;9.928;2022-12-01T01:49:17;107.57;;;37.20;;
5612;SDS011;63463;53.586;9.928;2022-12-01T01:51:50;99.00;;;36.23;;
5612;SDS011;63463;53.586;9.928;2022-12-01T01:54:24;113.10;;;37.77;;
5612;SDS011;63463;53.586;9.928;2022-12-01T01:56:51;101.77;;;37.63;;
5612;SDS011;63463;53.586;9.928;2022-12-01T01:59:22;89.33;;;35.53;;
5612;SDS011;63463;53.586;9.928;2022-12-01T02:01:50;99.40;;;37.10;;
5612;SDS011;63463;53.586;9.928;2022-12-01T02:04:17;100.43;;;38.53;;
5612;SDS011;63463;53.586;9.928;2022-12-01T02:06:44;101.53;;;36.80;;
5612;SDS011;63463;53.586;9.928;2022-12-01T02:09:10;103.10;;;37.60;;
5612;SDS011;63463;53.586;9.928;2022-12-01T02:14:33;114.80;;;37.70;;
5612;SDS011;63463;53.586;9.928;2022-12-01T02:22:02;109.43;;;38.47;;
5612;SDS011;63463;53.586;9.928;2022-12-01T02:32:29;98.17;;;35.67;;
5612;SDS011;63463;53.586;9.928;2022-12-01T02:37:34;107.47;;;37.50;;
5612;SDS011;63463;53.586;9.928;2022-12-01T02:45:15;88.00;;;35.27;;
5612;SDS011;63463;53.586;9.928;2022-12-01T02:47:43;107.43;;;37.47;;
5612;SDS011;63463;53.586;9.928;2022-12-01T02:50:09;93.23;;;36.37;;
5612;SDS011;63463;53.586;9.928;2022-12-01T02:52:36;95.20;;;36.80;;
5612;SDS011;63463;53.586;9.928;2022-12-01T02:55:03;96.93;;;35.70;;
5612;SDS011;63463;53.586;9.928;2022-12-01T02:57:29;110.97;;;40.50;;
5612;SDS011;63463;53.586;9.928;2022-12-01T02:59:55;93.70;;;36.17;;
5612;SDS011;63463;53.586;9.928;2022-12-01T03:05:09;105.13;;;37.20;;
5612;SDS011;63463;53.586;9.928;2022-12-01T03:08:22;110.60;;;38.07;;
5612;SDS011;63463;53.586;9.928;2022-12-01T03:10:38;105.50;;;38.70;;
5612;SDS011;63463;53.586;9.928;2022-12-01T03:21:24;105.00;;;38.30;;
5612;SDS011;63463;53.586;9.928;2022-12-01T03:23:52;121.17;;;38.17;;
5612;SDS011;63463;53.586;9.928;2022-12-01T03:26:20;117.77;;;38.70;;
5612;SDS011;63463;53.586;9.928;2022-12-01T03:28:51;115.10;;;38.70;;
5612;SDS011;63463;53.586;9.928;2022-12-01T03:31:19;126.67;;;37.80;;
5612;SDS011;63463;53.586;9.928;2022-12-01T03:33:49;100.53;;;35.33;;
5612;SDS011;63463;53.586;9.928;2022-12-01T03:36:35;94.67;;;35.50;;
5612;SDS011;63463;53.586;9.928;2022-12-01T03:39:06;104.57;;;38.10;;
5612;SDS011;63463;53.586;9.928;2022-12-01T03:41:36;122.33;;;39.77;;
5612;SDS011;63463;53.586;9.928;2022-12-01T03:44:08;112.70;;;39.57;;
5612;SDS011;63463;53.586;9.928;2022-12-01T03:46:45;122.20;;;39.73;;
5612;SDS011;63463;53.586;9.928;2022-12-01T03:49:12;106.90;;;38.07;;
5612;SDS011;63463;53.586;9.928;2022-12-01T03:51:42;102.00;;;39.00;;
5612;SDS011;63463;53.586;9.928;2022-12-01T03:56:42;115.67;;;39.53;;
5612;SDS011;63463;53.586;9.928;2022-12-01T03:59:10;114.50;;;40.10;;
5612;SDS011;63463;53.586;9.928;2022-12-01T04:01:36;120.03;;;36.63;;
5612;SDS011;63463;53.586;9.928;2022-12-01T04:04:07;125.70;;;38.30;;
5612;SDS011;63463;53.586;9.928;2022-12-01T04:06:33;122.80;;;40.30;;
5612;SDS011;63463;53.586;9.928;2022-12-01T04:08:59;124.90;;;40.17;;
5612;SDS011;63463;53.586;9.928;2022-12-01T04:11:25;109.57;;;39.10;;
5612;SDS011;63463;53.586;9.928;2022-12-01T04:14:09;110.80;;;37.97;;
5612;SDS011;63463;53.586;9.928;2022-12-01T04:16:35;106.17;;;36.13;;
5612;SDS011;63463;53.586;9.928;2022-12-01T04:19:01;124.23;;;39.10;;
5612;SDS011;63463;53.586;9.928;2022-12-01T04:21:27;106.00;;;38.80;;
5612;SDS011;63463;53.586;9.928;2022-12-01T04:23:53;123.87;;;39.83;;
5612;SDS011;63463;53.586;9.928;2022-12-01T04:26:26;117.73;;;37.83;;
5612;SDS011;63463;53.586;9.928;2022-12-01T04:28:52;120.67;;;40.37;;
5612;SDS011;63463;53.586;9.928;2022-12-01T04:31:17;107.33;;;36.13;;
5612;SDS011;63463;53.586;9.928;2022-12-01T04:33:43;110.33;;;37.97;;
5612;SDS011;63463;53.586;9.928;2022-12-01T04:36:09;113.27;;;38.50;;
5612;SDS011;63463;53.586;9.928;2022-12-01T04:38:35;128.10;;;40.53;;
5612;SDS011;63463;53.586;9.928;2022-12-01T04:41:11;127.53;;;39.80;;
5612;SDS011;63463;53.586;9.928;2022-12-01T04:43:37;140.17;;;41.23;;
5612;SDS011;63463;53.586;9.928;2022-12-01T04:46:03;112.03;;;39.33;;
5612;SDS011;63463;53.586;9.928;2022-12-01T04:48:30;107.80;;;36.40;;
5612;SDS011;63463;53.586;9.928;2022-12-01T04:50:56;120.17;;;39.80;;
5612;SDS011;63463;53.586;9.928;2022-12-01T04:53:22;119.37;;;38.53;;
5612;SDS011;63463;53.586;9.928;2022-12-01T04:55:48;111.80;;;37.10;;
5612;SDS011;63463;53.586;9.928;2022-12-01T04:58:14;116.37;;;37.83;;
5612;SDS011;63463;53.586;9.928;2022-12-01T05:00:40;112.87;;;38.30;;
5612;SDS011;63463;53.586;9.928;2022-12-01T05:03:06;120.33;;;37.90;;
5612;SDS011;63463;53.586;9.928;2022-12-01T05:05:32;112.33;;;36.50;;
5612;SDS011;63463;53.586;9.928;2022-12-01T05:07:58;122.20;;;38.60;;
5612;SDS011;63463;53.586;9.928;2022-12-01T05:10:24;110.43;;;38.37;;
5612;SDS011;63463;53.586;9.928;2022-12-01T05:12:50;111.67;;;36.53;;
5612;SDS011;63463;53.586;9.928;2022-12-01T05:15:16;123.27;;;40.50;;
5612;SDS011;63463;53.586;9.928;2022-12-01T05:17:42;126.00;;;39.77;;
5612;SDS011;63463;53.586;9.928;2022-12-01T05:20:13;113.13;;;37.87;;
5612;SDS011;63463;53.586;9.928;2022-12-01T05:22:58;123.87;;;38.40;;
5612;SDS011;63463;53.586;9.928;2022-12-01T05:25:24;109.53;;;36.90;;
5612;SDS011;63463;53.586;9.928;2022-12-01T05:27:50;118.93;;;38.47;;
5612;SDS011;63463;53.586;9.928;2022-12-01T05:30:16;111.97;;;37.80;;
5612;SDS011;63463;53.586;9.928;2022-12-01T05:32:42;120.37;;;38.00;;
5612;SDS011;63463;53.586;9.928;2022-12-01T05:35:07;123.13;;;37.43;;
5612;SDS011;63463;53.586;9.928;2022-12-01T05:37:33;100.97;;;34.60;;
5612;SDS011;63463;53.586;9.928;2022-12-01T05:40:00;120.13;;;39.10;;
5612;SDS011;63463;53.586;9.928;2022-12-01T05:42:26;124.30;;;39.27;;
5612;SDS011;63463;53.586;9.928;2022-12-01T05:44:52;112.27;;;37.97;;
5612;SDS011;63463;53.586;9.928;2022-12-01T05:47:18;117.33;;;38.73;;
5612;SDS011;63463;53.586;9.928;2022-12-01T05:49:44;130.63;;;38.40;;
5612;SDS011;63463;53.586;9.928;2022-12-01T05:52:09;119.77;;;37.10;;
5612;SDS011;63463;53.586;9.928;2022-12-01T05:54:36;126.27;;;40.70;;
5612;SDS011;63463;53.586;9.928;2022-12-01T05:57:01;127.07;;;40.97;;
5612;SDS011;63463;53.586;9.928;2022-12-01T05:59:28;108.60;;;35.10;;
5612;SDS011;63463;53.586;9.928;2022-12-01T06:01:54;112.20;;;37.90;;
5612;SDS011;63463;53.586;9.928;2022-12-01T06:04:20;125.93;;;39.00;;
5612;SDS011;63463;53.586;9.928;2022-12-01T06:06:46;129.47;;;37.43;;
5612;SDS011;63463;53.586;9.928;2022-12-01T06:09:12;121.63;;;38.30;;
5612;SDS011;63463;53.586;9.928;2022-12-01T06:11:38;128.90;;;40.17;;
5612;SDS011;63463;53.586;9.928;2022-12-01T06:14:04;117.07;;;38.50;;
5612;SDS011;63463;53.586;9.928;2022-12-01T06:16:30;115.13;;;37.13;;
5612;SDS011;63463;53.586;9.928;2022-12-01T06:18:56;109.60;;;37.30;;
5612;SDS011;63463;53.586;9.928;2022-12-01T06:21:22;105.67;;;35.43;;
5612;SDS011;63463;53.586;9.928;2022-12-01T06:23:47;115.93;;;37.80;;
5612;SDS011;63463;53.586;9.928;2022-12-01T06:26:13;119.43;;;38.63;;
5612;SDS011;63463;53.586;9.928;2022-12-01T06:28:39;110.80;;;37.03;;
5612;SDS011;63463;53.586;9.928;2022-12-01T06:31:05;109.63;;;37.80;;
5612;SDS011;63463;53.586;9.928;2022-12-01T06:33:31;115.57;;;39.80;;
5612;SDS011;63463;53.586;9.928;2022-12-01T06:35:58;124.13;;;38.13;;
5612;SDS011;63463;53.586;9.928;2022-12-01T06:38:24;122.07;;;37.60;;
5612;SDS011;63463;53.586;9.928;2022-12-01T06:40:50;113.83;;;37.10;;
5612;SDS011;63463;53.586;9.928;2022-12-01T06:43:16;119.37;;;38.53;;
5612;SDS011;63463;53.586;9.928;2022-12-01T06:45:42;103.30;;;36.33;;
5612;SDS011;63463;53.586;9.928;2022-12-01T06:48:08;110.00;;;37.03;;
5612;SDS011;63463;53.586;9.928;2022-12-01T06:50:36;122.20;;;38.47;;
5612;SDS011;63463;53.586;9.928;2022-12-01T06:53:02;119.67;;;37.77;;
5612;SDS011;63463;53.586;9.928;2022-12-01T06:55:28;116.80;;;36.97;;
5612;SDS011;63463;53.586;9.928;2022-12-01T06:57:54;112.87;;;36.63;;
5612;SDS011;63463;53.586;9.928;2022-12-01T07:00:20;116.33;;;37.20;;
5612;SDS011;63463;53.586;9.928;2022-12-01T07:02:46;123.27;;;37.83;;
5612;SDS011;63463;53.586;9.928;2022-12-01T07:05:12;114.00;;;36.10;;
5612;SDS011;63463;53.586;9.928;2022-12-01T07:07:38;116.50;;;37.20;;
5612;SDS011;63463;53.586;9.928;2022-12-01T07:10:05;112.53;;;38.60;;
5612;SDS011;63463;53.586;9.928;2022-12-01T07:12:31;116.80;;;36.83;;
5612;SDS011;63463;53.586;9.928;2022-12-01T07:14:57;127.73;;;39.37;;
5612;SDS011;63463;53.586;9.928;2022-12-01T07:17:23;108.10;;;35.50;;
5612;SDS011;63463;53.586;9.928;2022-12-01T07:19:49;105.17;;;36.00;;
5612;SDS011;63463;53.586;9.928;2022-12-01T07:22:15;101.80;;;35.90;;
5612;SDS011;63463;53.586;9.928;2022-12-01T07:24:41;129.73;;;35.87;;
5612;SDS011;63463;53.586;9.928;2022-12-01T07:27:07;120.90;;;38.10;;
5612;SDS011;63463;53.586;9.928;2022-12-01T07:29:33;128.27;;;39.43;;
5612;SDS011;63463;53.586;9.928;2022-12-01T07:31:59;115.57;;;37.80;;
5612;SDS011;63463;53.586;9.928;2022-12-01T07:34:24;119.00;;;36.17;;
5612;SDS011;63463;53.586;9.928;2022-12-01T07:36:51;105.70;;;35.00;;
5612;SDS011;63463;53.586;9.928;2022-12-01T07:39:17;115.03;;;36.67;;
5612;SDS011;63463;53.586;9.928;2022-12-01T07:41:43;117.50;;;37.40;;
5612;SDS011;63463;53.586;9.928;2022-12-01T07:44:09;110.40;;;36.00;;
5612;SDS011;63463;53.586;9.928;2022-12-01T07:46:35;131.97;;;36.53;;
5612;SDS011;63463;53.586;9.928;2022-12-01T07:49:03;106.70;;;35.60;;
5612;SDS011;63463;53.586;9.928;2022-12-01T07:51:30;108.10;;;35.70;;
5612;SDS011;63463;53.586;9.928;2022-12-01T07:53:59;103.63;;;35.03;;
5612;SDS011;63463;53.586;9.928;2022-12-01T07:56:25;95.70;;;34.07;;
5612;SDS011;63463;53.586;9.928;2022-12-01T07:58:51;96.80;;;32.50;;
5612;SDS011;63463;53.586;9.928;2022-12-01T08:01:18;112.27;;;35.80;;
5612;SDS011;63463;53.586;9.928;2022-12-01T08:03:46;105.60;;;34.73;;
5612;SDS011;63463;53.586;9.928;2022-12-01T08:06:13;110.57;;;34.80;;
5612;SDS011;63463;53.586;9.928;2022-12-01T08:08:39;111.90;;;36.67;;
5612;SDS011;63463;53.586;9.928;2022-12-01T08:11:06;122.33;;;37.97;;
5612;SDS011;63463;53.586;9.928;2022-12-01T08:13:34;111.20;;;37.13;;
5612;SDS011;63463;53.586;9.928;2022-12-01T08:16:03;119.27;;;36.03;;
5612;SDS011;63463;53.586;9.928;2022-12-01T08:18:30;112.27;;;34.80;;
5612;SDS011;63463;53.586;9.928;2022-12-01T08:20:56;109.33;;;36.20;;
5612;SDS011;63463;53.586;9.928;2022-12-01T08:23:22;103.83;;;33.93;;
5612;SDS011;63463;53.586;9.928;2022-12-01T08:25:48;96.63;;;34.37;;
5612;SDS011;63463;53.586;9.928;2022-12-01T08:28:16;110.53;;;35.60;;
5612;SDS011;63463;53.586;9.928;2022-12-01T08:30:42;100.57;;;36.00;;
5612;SDS011;63463;53.586;9.928;2022-12-01T08:33:08;109.43;;;37.07;;
5612;SDS011;63463;53.586;9.928;2022-12-01T08:35:35;104.47;;;34.90;;
5612;SDS011;63463;53.586;9.928;2022-12-01T08:38:01;107.97;;;36.20;;
5612;SDS011;63463;53.586;9.928;2022-12-01T08:40:27;105.70;;;34.13;;
5612;SDS011;63463;53.586;9.928;2022-12-01T08:42:53;100.97;;;34.80;;
5612;SDS011;63463;53.586;9.928;2022-12-01T08:45:19;109.00;;;35.20;;
5612;SDS011;63463;53.586;9.928;2022-12-01T08:47:47;110.87;;;34.23;;
5612;SDS011;63463;53.586;9.928;2022-12-01T08:50:13;108.03;;;33.60;;
5612;SDS011;63463;53.586;9.928;2022-12-01T08:52:38;109.70;;;35.77;;
5612;SDS011;63463;53.586;9.928;2022-12-01T08:55:05;108.33;;;33.40;;
5612;SDS011;63463;53.586;9.928;2022-12-01T08:57:31;91.00;;;32.53;;
5612;SDS011;63463;53.586;9.928;2022-12-01T08:59:57;125.73;;;34.40;;
5612;SDS011;63463;53.586;9.928;2022-12-01T09:02:23;96.90;;;33.43;;
5612;SDS011;63463;53.586;9.928;2022-12-01T09:04:49;115.23;;;33.33;;
5612;SDS011;63463;53.586;9.928;2022-12-01T09:07:15;109.43;;;34.00;;
5612;SDS011;63463;53.586;9.928;2022-12-01T09:09:42;113.73;;;34.60;;
5612;SDS011;63463;53.586;9.928;2022-12-01T09:12:08;93.77;;;31.47;;
5612;SDS011;63463;53.586;9.928;2022-12-01T09:14:41;91.57;;;33.13;;
5612;SDS011;63463;53.586;9.928;2022-12-01T09:17:09;87.17;;;30.47;;
5612;SDS011;63463;53.586;9.928;2022-12-01T09:19:35;85.57;;;32.27;;
5612;SDS011;63463;53.586;9.928;2022-12-01T09:22:01;98.10;;;33.53;;
5612;SDS011;63463;53.586;9.928;2022-12-01T09:24:27;95.80;;;33.17;;
5612;SDS011;63463;53.586;9.928;2022-12-01T09:26:54;86.93;;;32.00;;
5612;SDS011;63463;53.586;9.928;2022-12-01T09:29:20;98.97;;;33.87;;
5612;SDS011;63463;53.586;9.928;2022-12-01T09:31:46;99.40;;;31.63;;
5612;SDS011;63463;53.586;9.928;2022-12-01T09:34:13;93.03;;;32.13;;
5612;SDS011;63463;53.586;9.928;2022-12-01T09:36:39;88.90;;;31.27;;
5612;SDS011;63463;53.586;9.928;2022-12-01T09:39:06;78.80;;;28.77;;
5612;SDS011;63463;53.586;9.928;2022-12-01T09:41:39;91.63;;;33.23;;
5612;SDS011;63463;53.586;9.928;2022-12-01T09:46:46;89.50;;;30.00;;
5612;SDS011;63463;53.586;9.928;2022-12-01T09:49:18;93.23;;;30.10;;
5612;SDS011;63463;53.586;9.928;2022-12-01T09:51:46;100.30;;;29.97;;
5612;SDS011;63463;53.586;9.928;2022-12-01T09:54:13;107.37;;;32.60;;
5612;SDS011;63463;53.586;9.928;2022-12-01T09:56:41;93.20;;;32.03;;
5612;SDS011;63463;53.586;9.928;2022-12-01T09:59:12;84.40;;;31.07;;
5612;SDS011;63463;53.586;9.928;2022-12-01T10:01:42;88.27;;;29.03;;
5612;SDS011;63463;53.586;9.928;2022-12-01T10:04:10;85.67;;;29.13;;
5612;SDS011;63463;53.586;9.928;2022-12-01T10:06:50;83.93;;;28.53;;
5612;SDS011;63463;53.586;9.928;2022-12-01T10:09:28;76.30;;;28.80;;
5612;SDS011;63463;53.586;9.928;2022-12-01T10:12:00;76.60;;;27.73;;
5612;SDS011;63463;53.586;9.928;2022-12-01T10:14:28;66.40;;;25.70;;
5612;SDS011;63463;53.586;9.928;2022-12-01T10:19:45;65.83;;;25.80;;
5612;SDS011;63463;53.586;9.928;2022-12-01T10:30:03;69.10;;;25.60;;
5612;SDS011;63463;53.586;9.928;2022-12-01T10:35:14;64.87;;;25.27;;
5612;SDS011;63463;53.586;9.928;2022-12-01T10:37:40;65.07;;;25.30;;
5612;SDS011;63463;53.586;9.928;2022-12-01T10:40:12;63.90;;;25.27;;
5612;SDS011;63463;53.586;9.928;2022-12-01T10:42:43;71.30;;;25.77;;
5612;SDS011;63463;53.586;9.928;2022-12-01T10:45:14;75.90;;;25.40;;
5612;SDS011;63463;53.586;9.928;2022-12-01T10:50:26;65.77;;;24.70;;
5612;SDS011;63463;53.586;9.928;2022-12-01T10:52:52;68.67;;;24.63;;
5612;SDS011;63463;53.586;9.928;2022-12-01T10:57:47;72.40;;;24.30;;
5612;SDS011;63463;53.586;9.928;2022-12-01T11:00:24;66.13;;;22.97;;
5612;SDS011;63463;53.586;9.928;2022-12-01T11:02:50;61.57;;;23.30;;
5612;SDS011;63463;53.586;9.928;2022-12-01T11:05:20;65.47;;;24.47;;
5612;SDS011;63463;53.586;9.928;2022-12-01T11:07:48;68.90;;;22.00;;
5612;SDS011;63463;53.586;9.928;2022-12-01T11:10:25;74.47;;;24.10;;
5612;SDS011;63463;53.586;9.928;2022-12-01T11:13:16;59.03;;;23.20;;
5612;SDS011;63463;53.586;9.928;2022-12-01T11:15:38;66.07;;;20.50;;
5612;SDS011;63463;53.586;9.928;2022-12-01T11:18:08;57.33;;;20.60;;
5612;SDS011;63463;53.586;9.928;2022-12-01T11:20:44;54.93;;;20.00;;
5612;SDS011;63463;53.586;9.928;2022-12-01T11:28:21;46.33;;;20.07;;
5612;SDS011;63463;53.586;9.928;2022-12-01T11:30:47;59.13;;;20.23;;
5612;SDS011;63463;53.586;9.928;2022-12-01T11:33:19;62.93;;;22.40;;
5612;SDS011;63463;53.586;9.928;2022-12-01T11:35:45;60.40;;;20.97;;
5612;SDS011;63463;53.586;9.928;2022-12-01T11:38:18;54.77;;;20.13;;
5612;SDS011;63463;53.586;9.928;2022-12-01T11:40:45;46.60;;;19.33;;
5612;SDS011;63463;53.586;9.928;2022-12-01T11:43:18;56.90;;;21.37;;
5612;SDS011;63463;53.586;9.928;2022-12-01T11:45:46;65.17;;;22.30;;
5612;SDS011;63463;53.586;9.928;2022-12-01T11:50:42;64.33;;;22.90;;
5612;SDS011;63463;53.586;9.928;2022-12-01T11:58:45;57.90;;;21.97;;
5612;SDS011;63463;53.586;9.928;2022-12-01T12:04:12;65.30;;;23.47;;
5612;SDS011;63463;53.586;9.928;2022-12-01T12:06:47;74.23;;;22.47;;
5612;SDS011;63463;53.586;9.928;2022-12-01T12:11:45;66.37;;;23.13;;
5612;SDS011;63463;53.586;9.928;2022-12-01T17:12:46;68.90;;;19.47;;
5612;SDS011;63463;53.586;9.928;2022-12-01T17:15:12;61.03;;;19.00;;
5612;SDS011;63463;53.586;9.928;2022-12-01T17:17:38;72.03;;;19.60;;
5612;SDS011;63463;53.586;9.928;2022-12-01T17:20:04;66.40;;;19.40;;
5612;SDS011;63463;53.586;9.928;2022-12-01T17:22:31;51.40;;;17.80;;
5612;SDS011;63463;53.586;9.928;2022-12-01T17:24:57;80.10;;;21.57;;
5612;SDS011;63463;53.586;9.928;2022-12-01T17:27:24;88.93;;;19.47;;
5612;SDS011;63463;53.586;9.928;2022-12-01T17:32:46;71.50;;;20.40;;
5612;SDS011;63463;53.586;9.928;2022-12-01T17:35:12;52.00;;;18.40;;
5612;SDS011;63463;53.586;9.928;2022-12-01T17:37:38;62.47;;;20.50;;
5612;SDS011;63463;53.586;9.928;2022-12-01T17:40:04;68.23;;;20.40;;
5612;SDS011;63463;53.586;9.928;2022-12-01T17:42:31;66.13;;;20.63;;
5612;SDS011;63463;53.586;9.928;2022-12-01T17:44:57;84.30;;;21.23;;
5612;SDS011;63463;53.586;9.928;2022-12-01T17:47:24;79.73;;;21.53;;
5612;SDS011;63463;53.586;9.928;2022-12-01T17:49:51;83.63;;;20.53;;
5612;SDS011;63463;53.586;9.928;2022-12-01T17:52:17;65.63;;;19.80;;
5612;SDS011;63463;53.586;9.928;2022-12-01T17:54:43;61.70;;;19.47;;
5612;SDS011;63463;53.586;9.928;2022-12-01T17:57:09;78.90;;;20.13;;
5612;SDS011;63463;53.586;9.928;2022-12-01T17:59:36;66.30;;;18.73;;
5612;SDS011;63463;53.586;9.928;2022-12-01T18:02:04;72.30;;;20.60;;
5612;SDS011;63463;53.586;9.928;2022-12-01T18:04:30;71.13;;;18.40;;
5612;SDS011;63463;53.586;9.928;2022-12-01T18:06:56;81.70;;;20.67;;
5612;SDS011;63463;53.586;9.928;2022-12-01T18:12:25;61.67;;;19.50;;
5612;SDS011;63463;53.586;9.928;2022-12-01T18:14:51;54.50;;;19.13;;
5612;SDS011;63463;53.586;9.928;2022-12-01T18:17:17;54.63;;;18.40;;
5612;SDS011;63463;53.586;9.928;2022-12-01T18:19:43;58.47;;;19.53;;
5612;SDS011;63463;53.586;9.928;2022-12-01T18:22:09;56.50;;;17.60;;
5612;SDS011;63463;53.586;9.928;2022-12-01T18:24:35;56.43;;;19.83;;
5612;SDS011;63463;53.586;9.928;2022-12-01T18:27:01;60.27;;;19.10;;
5612;SDS011;63463;53.586;9.928;2022-12-01T18:29:27;51.57;;;17.90;;
5612;SDS011;63463;53.586;9.928;2022-12-01T18:31:54;55.07;;;18.57;;
5612;SDS011;63463;53.586;9.928;2022-12-01T18:34:20;53.93;;;19.20;;
5612;SDS011;63463;53.586;9.928;2022-12-01T18:36:46;43.57;;;17.67;;
5612;SDS011;63463;53.586;9.928;2022-12-01T18:39:12;53.23;;;18.40;;
5612;SDS011;63463;53.586;9.928;2022-12-01T18:41:38;68.53;;;20.67;;
5612;SDS011;63463;53.586;9.928;2022-12-01T18:44:04;47.80;;;18.67;;
5612;SDS011;63463;53.586;9.928;2022-12-01T18:46:31;64.63;;;19.50;;
5612;SDS011;63463;53.586;9.928;2022-12-01T18:48:57;52.57;;;18.50;;
5612;SDS011;63463;53.586;9.928;2022-12-01T18:51:30;53.23;;;17.87;;
5612;SDS011;63463;53.586;9.928;2022-12-01T18:53:57;49.67;;;18.53;;
5612;SDS011;63463;53.586;9.928;2022-12-01T18:56:23;56.43;;;21.50;;
5612;SDS011;63463;53.586;9.928;2022-12-01T18:58:55;52.63;;;19.43;;
5612;SDS011;63463;53.586;9.928;2022-12-01T19:01:23;42.03;;;17.33;;
5612;SDS011;63463;53.586;9.928;2022-12-01T19:03:49;45.60;;;18.30;;
5612;SDS011;63463;53.586;9.928;2022-12-01T19:06:16;53.03;;;18.80;;
5612;SDS011;63463;53.586;9.928;2022-12-01T19:08:42;63.53;;;19.43;;
5612;SDS011;63463;53.586;9.928;2022-12-01T19:11:08;57.80;;;19.33;;
5612;SDS011;63463;53.586;9.928;2022-12-01T19:13:34;44.07;;;18.77;;
5612;SDS011;63463;53.586;9.928;2022-12-01T19:16:07;60.20;;;19.77;;
5612;SDS011;63463;53.586;9.928;2022-12-01T19:18:33;48.70;;;19.60;;
5612;SDS011;63463;53.586;9.928;2022-12-01T19:21:00;49.90;;;20.00;;
5612;SDS011;63463;53.586;9.928;2022-12-01T19:23:26;53.67;;;20.33;;
5612;SDS011;63463;53.586;9.928;2022-12-01T19:25:52;50.30;;;18.87;;
5612;SDS011;63463;53.586;9.928;2022-12-01T19:28:19;41.77;;;20.17;;
5612;SDS011;63463;53.586;9.928;2022-12-01T19:30:44;54.60;;;18.20;;
5612;SDS011;63463;53.586;9.928;2022-12-01T19:33:10;54.57;;;20.63;;
5612;SDS011;63463;53.586;9.928;2022-12-01T19:35:36;61.03;;;19.30;;
5612;SDS011;63463;53.586;9.928;2022-12-01T19:38:02;63.40;;;20.30;;
5612;SDS011;63463;53.586;9.928;2022-12-01T19:40:28;45.97;;;18.43;;
5612;SDS011;63463;53.586;9.928;2022-12-01T19:42:54;85.50;;;21.50;;
5612;SDS011;63463;53.586;9.928;2022-12-01T19:45:21;64.77;;;20.63;;
5612;SDS011;63463;53.586;9.928;2022-12-01T19:47:47;63.00;;;21.13;;
5612;SDS011;63463;53.586;9.928;2022-12-01T19:50:16;54.57;;;20.80;;
5612;SDS011;63463;53.586;9.928;2022-12-01T19:52:42;58.60;;;21.13;;
5612;SDS011;63463;53.586;9.928;2022-12-01T19:55:08;61.93;;;21.30;;
5612;SDS011;63463;53.586;9.928;2022-12-01T19:57:34;51.10;;;19.00;;
5612;SDS011;63463;53.586;9.928;2022-12-01T20:00:00;60.13;;;20.93;;
5612;SDS011;63463;53.586;9.928;2022-12-01T20:02:26;51.60;;;20.00;;
5612;SDS011;63463;53.586;9.928;2022-12-01T20:04:52;61.47;;;20.30;;
5612;SDS011;63463;53.586;9.928;2022-12-01T20:07:20;58.63;;;19.27;;
5612;SDS011;63463;53.586;9.928;2022-12-01T20:09:46;53.90;;;19.23;;
5612;SDS011;63463;53.586;9.928;2022-12-01T20:12:12;60.40;;;20.70;;
5612;SDS011;63463;53.586;9.928;2022-12-01T20:14:38;51.07;;;18.50;;
5612;SDS011;63463;53.586;9.928;2022-12-01T20:17:04;58.80;;;19.70;;
5612;SDS011;63463;53.586;9.928;2022-12-01T20:19:30;65.87;;;19.20;;
5612;SDS011;63463;53.586;9.928;2022-12-01T20:21:56;51.20;;;20.70;;
5612;SDS011;63463;53.586;9.928;2022-12-01T20:24:22;67.23;;;20.10;;
5612;SDS011;63463;53.586;9.928;2022-12-01T20:26:52;54.77;;;20.50;;
5612;SDS011;63463;53.586;9.928;2022-12-01T20:29:21;63.87;;;20.60;;
5612;SDS011;63463;53.586;9.928;2022-12-01T20:31:48;56.07;;;19.47;;
5612;SDS011;63463;53.586;9.928;2022-12-01T20:34:19;59.90;;;20.20;;
5612;SDS011;63463;53.586;9.928;2022-12-01T20:36:45;49.97;;;21.60;;
5612;SDS011;63463;53.586;9.928;2022-12-01T20:39:11;61.23;;;20.20;;
5612;SDS011;63463;53.586;9.928;2022-12-01T20:41:38;57.07;;;19.53;;
5612;SDS011;63463;53.586;9.928;2022-12-01T20:44:04;58.50;;;21.00;;
5612;SDS011;63463;53.586;9.928;2022-12-01T20:46:30;55.17;;;20.83;;
5612;SDS011;63463;53.586;9.928;2022-12-01T20:48:56;53.50;;;20.27;;
5612;SDS011;63463;53.586;9.928;2022-12-01T20:51:22;54.00;;;20.30;;
5612;SDS011;63463;53.586;9.928;2022-12-01T20:53:48;61.07;;;22.90;;
5612;SDS011;63463;53.586;9.928;2022-12-01T20:56:14;63.10;;;21.87;;